sensor_id;sensor_type;location;lat;lon;timestamp;P1;durP1;ratioP1;P2;durP2;ratioP2
16954;SDS011;8594;52.052;8.354;2022-11-25T00:01:59;22.80;;;4.87;;
16954;SDS011;8594;52.052;8.354;2022-11-25T00:04:26;16.13;;;5.17;;
16954;SDS011;8594;52.052;8.354;2022-11-25T00:06:57;14.67;;;5.03;;
16954;SDS011;8594;52.052;8.354;2022-11-25T00:09:24;25.73;;;5.80;;
16954;SDS011;8594;52.052;8.354;2022-11-25T00:11:51;14.13;;;4.43;;
16954;SDS011;8594;52.052;8.354;2022-11-25T00:14:18;16.97;;;5.13;;
16954;SDS011;8594;52.052;8.354;2022-11-25T00:16:45;19.07;;;4.63;;
16954;SDS011;8594;52.052;8.354;2022-11-25T00:19:14;17.23;;;5.00;;
16954;SDS011;8594;52.052;8.354;2022-11-25T00:21:41;16.50;;;4.17;;
16954;SDS011;8594;52.052;8.354;2022-11-25T00:24:08;17.20;;;4.67;;
16954;SDS011;8594;52.052;8.354;2022-11-25T00:26:39;21.93;;;5.90;;
16954;SDS011;8594;52.052;8.354;2022-11-25T00:29:06;15.20;;;4.30;;
16954;SDS011;8594;52.052;8.354;2022-11-25T00:31:38;22.70;;;5.47;;
16954;SDS011;8594;52.052;8.354;2022-11-25T00:34:06;18.27;;;5.43;;
16954;SDS011;8594;52.052;8.354;2022-11-25T00:36:41;17.73;;;4.43;;
16954;SDS011;8594;52.052;8.354;2022-11-25T00:39:09;16.27;;;4.53;;
16954;SDS011;8594;52.052;8.354;2022-11-25T00:41:39;20.67;;;4.20;;
16954;SDS011;8594;52.052;8.354;2022-11-25T00:44:24;18.73;;;4.57;;
16954;SDS011;8594;52.052;8.354;2022-11-25T00:47:00;15.63;;;3.70;;
16954;SDS011;8594;52.052;8.354;2022-11-25T00:49:28;9.50;;;3.90;;
16954;SDS011;8594;52.052;8.354;2022-11-25T00:51:57;22.70;;;4.33;;
16954;SDS011;8594;52.052;8.354;2022-11-25T00:54:24;12.73;;;3.60;;
16954;SDS011;8594;52.052;8.354;2022-11-25T00:56:51;17.10;;;5.00;;
16954;SDS011;8594;52.052;8.354;2022-11-25T00:59:18;18.03;;;3.53;;
16954;SDS011;8594;52.052;8.354;2022-11-25T01:01:45;13.10;;;3.90;;
16954;SDS011;8594;52.052;8.354;2022-11-25T01:04:13;19.90;;;4.20;;
16954;SDS011;8594;52.052;8.354;2022-11-25T01:06:40;21.53;;;3.90;;
16954;SDS011;8594;52.052;8.354;2022-11-25T01:09:09;16.63;;;4.37;;
16954;SDS011;8594;52.052;8.354;2022-11-25T01:11:38;15.10;;;3.63;;
16954;SDS011;8594;52.052;8.354;2022-11-25T01:14:06;15.83;;;3.77;;
16954;SDS011;8594;52.052;8.354;2022-11-25T01:16:33;23.67;;;3.73;;
16954;SDS011;8594;52.052;8.354;2022-11-25T01:19:01;16.70;;;3.70;;
16954;SDS011;8594;52.052;8.354;2022-11-25T01:21:29;19.77;;;3.73;;
16954;SDS011;8594;52.052;8.354;2022-11-25T01:23:59;16.70;;;3.73;;
16954;SDS011;8594;52.052;8.354;2022-11-25T01:26:29;12.53;;;3.73;;
16954;SDS011;8594;52.052;8.354;2022-11-25T01:28:59;20.63;;;3.83;;
16954;SDS011;8594;52.052;8.354;2022-11-25T01:31:30;15.97;;;3.50;;
16954;SDS011;8594;52.052;8.354;2022-11-25T01:34:00;17.57;;;3.50;;
16954;SDS011;8594;52.052;8.354;2022-11-25T01:36:30;15.37;;;3.87;;
16954;SDS011;8594;52.052;8.354;2022-11-25T01:38:57;12.20;;;3.10;;
16954;SDS011;8594;52.052;8.354;2022-11-25T01:41:26;18.97;;;3.57;;
16954;SDS011;8594;52.052;8.354;2022-11-25T01:44:08;16.30;;;3.87;;
16954;SDS011;8594;52.052;8.354;2022-11-25T01:46:43;17.27;;;3.43;;
16954;SDS011;8594;52.052;8.354;2022-11-25T01:49:16;19.93;;;3.67;;
16954;SDS011;8594;52.052;8.354;2022-11-25T01:51:51;13.27;;;3.53;;
16954;SDS011;8594;52.052;8.354;2022-11-25T01:54:25;14.53;;;3.10;;
16954;SDS011;8594;52.052;8.354;2022-11-25T01:57:00;11.33;;;2.70;;
16954;SDS011;8594;52.052;8.354;2022-11-25T01:59:33;21.10;;;3.63;;
16954;SDS011;8594;52.052;8.354;2022-11-25T02:02:08;11.10;;;3.40;;
16954;SDS011;8594;52.052;8.354;2022-11-25T02:04:35;15.03;;;2.80;;
16954;SDS011;8594;52.052;8.354;2022-11-25T02:07:07;13.33;;;3.13;;
16954;SDS011;8594;52.052;8.354;2022-11-25T02:09:40;19.60;;;3.63;;
16954;SDS011;8594;52.052;8.354;2022-11-25T02:12:12;13.70;;;3.20;;
16954;SDS011;8594;52.052;8.354;2022-11-25T02:14:43;16.07;;;3.10;;
16954;SDS011;8594;52.052;8.354;2022-11-25T02:17:12;17.10;;;3.70;;
16954;SDS011;8594;52.052;8.354;2022-11-25T02:19:43;10.40;;;3.10;;
16954;SDS011;8594;52.052;8.354;2022-11-25T02:22:25;14.70;;;2.97;;
16954;SDS011;8594;52.052;8.354;2022-11-25T02:25:12;18.00;;;3.33;;
16954;SDS011;8594;52.052;8.354;2022-11-25T02:27:42;8.63;;;2.93;;
16954;SDS011;8594;52.052;8.354;2022-11-25T02:30:14;10.93;;;3.03;;
16954;SDS011;8594;52.052;8.354;2022-11-25T02:32:42;17.50;;;2.97;;
16954;SDS011;8594;52.052;8.354;2022-11-25T02:35:22;17.97;;;3.40;;
16954;SDS011;8594;52.052;8.354;2022-11-25T02:37:58;10.20;;;3.33;;
16954;SDS011;8594;52.052;8.354;2022-11-25T02:40:32;13.53;;;2.73;;
16954;SDS011;8594;52.052;8.354;2022-11-25T02:43:07;13.40;;;3.77;;
16954;SDS011;8594;52.052;8.354;2022-11-25T02:45:40;8.17;;;2.77;;
16954;SDS011;8594;52.052;8.354;2022-11-25T02:48:15;13.13;;;2.90;;
16954;SDS011;8594;52.052;8.354;2022-11-25T02:50:42;13.10;;;3.03;;
16954;SDS011;8594;52.052;8.354;2022-11-25T02:53:09;13.97;;;3.67;;
16954;SDS011;8594;52.052;8.354;2022-11-25T02:55:38;17.77;;;2.87;;
16954;SDS011;8594;52.052;8.354;2022-11-25T02:58:05;24.07;;;3.40;;
16954;SDS011;8594;52.052;8.354;2022-11-25T03:00:33;17.73;;;3.07;;
16954;SDS011;8594;52.052;8.354;2022-11-25T03:03:00;16.70;;;4.00;;
16954;SDS011;8594;52.052;8.354;2022-11-25T03:05:27;13.07;;;2.93;;
16954;SDS011;8594;52.052;8.354;2022-11-25T03:07:54;17.30;;;3.10;;
16954;SDS011;8594;52.052;8.354;2022-11-25T03:10:21;12.67;;;2.53;;
16954;SDS011;8594;52.052;8.354;2022-11-25T03:12:50;7.97;;;2.47;;
16954;SDS011;8594;52.052;8.354;2022-11-25T03:15:17;13.03;;;2.87;;
16954;SDS011;8594;52.052;8.354;2022-11-25T03:17:45;11.40;;;2.87;;
16954;SDS011;8594;52.052;8.354;2022-11-25T03:20:12;13.73;;;2.97;;
16954;SDS011;8594;52.052;8.354;2022-11-25T03:22:40;14.37;;;3.17;;
16954;SDS011;8594;52.052;8.354;2022-11-25T03:25:08;11.20;;;2.80;;
16954;SDS011;8594;52.052;8.354;2022-11-25T03:27:37;11.23;;;3.03;;
16954;SDS011;8594;52.052;8.354;2022-11-25T03:30:08;10.73;;;2.67;;
16954;SDS011;8594;52.052;8.354;2022-11-25T03:32:38;12.10;;;2.90;;
16954;SDS011;8594;52.052;8.354;2022-11-25T03:35:05;14.13;;;2.90;;
16954;SDS011;8594;52.052;8.354;2022-11-25T03:37:33;12.50;;;2.93;;
16954;SDS011;8594;52.052;8.354;2022-11-25T03:40:00;11.83;;;2.67;;
16954;SDS011;8594;52.052;8.354;2022-11-25T03:42:28;14.20;;;3.20;;
16954;SDS011;8594;52.052;8.354;2022-11-25T03:44:55;13.33;;;3.17;;
16954;SDS011;8594;52.052;8.354;2022-11-25T03:47:23;12.90;;;3.40;;
16954;SDS011;8594;52.052;8.354;2022-11-25T03:49:50;15.60;;;3.23;;
16954;SDS011;8594;52.052;8.354;2022-11-25T03:52:17;16.97;;;3.03;;
16954;SDS011;8594;52.052;8.354;2022-11-25T03:54:44;12.33;;;3.23;;
16954;SDS011;8594;52.052;8.354;2022-11-25T03:57:11;11.30;;;3.40;;
16954;SDS011;8594;52.052;8.354;2022-11-25T03:59:38;13.90;;;3.50;;
16954;SDS011;8594;52.052;8.354;2022-11-25T04:02:05;9.57;;;2.73;;
16954;SDS011;8594;52.052;8.354;2022-11-25T04:04:33;16.87;;;3.00;;
16954;SDS011;8594;52.052;8.354;2022-11-25T04:07:00;8.53;;;3.20;;
16954;SDS011;8594;52.052;8.354;2022-11-25T04:09:27;13.27;;;2.77;;
16954;SDS011;8594;52.052;8.354;2022-11-25T04:11:54;17.90;;;3.60;;
16954;SDS011;8594;52.052;8.354;2022-11-25T04:14:39;9.43;;;2.63;;
16954;SDS011;8594;52.052;8.354;2022-11-25T04:17:06;17.07;;;3.33;;
16954;SDS011;8594;52.052;8.354;2022-11-25T04:19:34;8.60;;;2.97;;
16954;SDS011;8594;52.052;8.354;2022-11-25T04:22:01;12.20;;;3.30;;
16954;SDS011;8594;52.052;8.354;2022-11-25T04:24:28;11.67;;;2.90;;
16954;SDS011;8594;52.052;8.354;2022-11-25T04:26:55;13.23;;;2.80;;
16954;SDS011;8594;52.052;8.354;2022-11-25T04:29:22;8.57;;;2.90;;
16954;SDS011;8594;52.052;8.354;2022-11-25T04:31:49;18.97;;;4.07;;
16954;SDS011;8594;52.052;8.354;2022-11-25T04:34:16;10.73;;;3.17;;
16954;SDS011;8594;52.052;8.354;2022-11-25T04:36:44;16.50;;;3.17;;
16954;SDS011;8594;52.052;8.354;2022-11-25T04:39:11;12.77;;;3.20;;
16954;SDS011;8594;52.052;8.354;2022-11-25T04:41:38;10.53;;;2.77;;
16954;SDS011;8594;52.052;8.354;2022-11-25T04:44:04;15.33;;;2.97;;
16954;SDS011;8594;52.052;8.354;2022-11-25T04:46:32;7.73;;;2.60;;
16954;SDS011;8594;52.052;8.354;2022-11-25T04:49:04;8.43;;;2.70;;
16954;SDS011;8594;52.052;8.354;2022-11-25T04:51:31;11.47;;;3.20;;
16954;SDS011;8594;52.052;8.354;2022-11-25T04:53:59;14.40;;;2.97;;
16954;SDS011;8594;52.052;8.354;2022-11-25T04:56:26;15.93;;;3.37;;
16954;SDS011;8594;52.052;8.354;2022-11-25T04:58:53;12.27;;;3.17;;
16954;SDS011;8594;52.052;8.354;2022-11-25T05:01:37;13.60;;;3.33;;
16954;SDS011;8594;52.052;8.354;2022-11-25T05:04:04;12.23;;;3.07;;
16954;SDS011;8594;52.052;8.354;2022-11-25T05:06:31;12.70;;;2.90;;
16954;SDS011;8594;52.052;8.354;2022-11-25T05:08:59;10.13;;;3.00;;
16954;SDS011;8594;52.052;8.354;2022-11-25T05:11:28;6.77;;;2.40;;
16954;SDS011;8594;52.052;8.354;2022-11-25T05:13:55;15.47;;;2.63;;
16954;SDS011;8594;52.052;8.354;2022-11-25T05:16:22;13.57;;;3.20;;
16954;SDS011;8594;52.052;8.354;2022-11-25T05:18:49;11.30;;;3.07;;
16954;SDS011;8594;52.052;8.354;2022-11-25T05:21:16;11.33;;;3.00;;
16954;SDS011;8594;52.052;8.354;2022-11-25T05:23:42;10.73;;;2.60;;
16954;SDS011;8594;52.052;8.354;2022-11-25T05:26:11;9.67;;;3.00;;
16954;SDS011;8594;52.052;8.354;2022-11-25T05:28:37;11.43;;;3.23;;
16954;SDS011;8594;52.052;8.354;2022-11-25T05:31:04;10.77;;;3.10;;
16954;SDS011;8594;52.052;8.354;2022-11-25T05:33:31;10.93;;;2.77;;
16954;SDS011;8594;52.052;8.354;2022-11-25T05:35:59;14.83;;;3.90;;
16954;SDS011;8594;52.052;8.354;2022-11-25T05:38:28;13.30;;;3.27;;
16954;SDS011;8594;52.052;8.354;2022-11-25T05:40:59;17.77;;;3.30;;
16954;SDS011;8594;52.052;8.354;2022-11-25T05:43:29;12.20;;;3.17;;
16954;SDS011;8594;52.052;8.354;2022-11-25T05:45:56;12.60;;;3.03;;
16954;SDS011;8594;52.052;8.354;2022-11-25T05:48:24;15.80;;;4.00;;
16954;SDS011;8594;52.052;8.354;2022-11-25T05:50:51;11.27;;;3.47;;
16954;SDS011;8594;52.052;8.354;2022-11-25T05:53:18;11.20;;;3.30;;
16954;SDS011;8594;52.052;8.354;2022-11-25T05:55:52;15.20;;;3.00;;
16954;SDS011;8594;52.052;8.354;2022-11-25T05:58:21;15.20;;;3.27;;
16954;SDS011;8594;52.052;8.354;2022-11-25T06:00:49;16.27;;;3.37;;
16954;SDS011;8594;52.052;8.354;2022-11-25T06:03:17;14.77;;;4.33;;
16954;SDS011;8594;52.052;8.354;2022-11-25T06:05:44;13.27;;;3.50;;
16954;SDS011;8594;52.052;8.354;2022-11-25T06:08:10;12.07;;;3.50;;
16954;SDS011;8594;52.052;8.354;2022-11-25T06:10:37;14.00;;;3.60;;
16954;SDS011;8594;52.052;8.354;2022-11-25T06:13:05;16.23;;;4.27;;
16954;SDS011;8594;52.052;8.354;2022-11-25T06:15:32;11.00;;;3.50;;
16954;SDS011;8594;52.052;8.354;2022-11-25T06:18:01;14.90;;;3.70;;
16954;SDS011;8594;52.052;8.354;2022-11-25T06:20:29;12.87;;;3.90;;
16954;SDS011;8594;52.052;8.354;2022-11-25T06:22:56;13.93;;;4.53;;
16954;SDS011;8594;52.052;8.354;2022-11-25T06:25:23;17.63;;;4.60;;
16954;SDS011;8594;52.052;8.354;2022-11-25T06:27:51;12.03;;;4.20;;
16954;SDS011;8594;52.052;8.354;2022-11-25T06:30:18;17.23;;;4.50;;
16954;SDS011;8594;52.052;8.354;2022-11-25T06:32:45;15.60;;;6.47;;
16954;SDS011;8594;52.052;8.354;2022-11-25T06:35:14;12.90;;;4.20;;
16954;SDS011;8594;52.052;8.354;2022-11-25T06:37:41;59.20;;;23.47;;
16954;SDS011;8594;52.052;8.354;2022-11-25T06:40:08;18.43;;;4.50;;
16954;SDS011;8594;52.052;8.354;2022-11-25T06:42:36;17.27;;;4.60;;
16954;SDS011;8594;52.052;8.354;2022-11-25T06:45:04;11.53;;;4.63;;
16954;SDS011;8594;52.052;8.354;2022-11-25T06:47:32;15.20;;;4.60;;
16954;SDS011;8594;52.052;8.354;2022-11-25T06:49:59;17.93;;;5.07;;
16954;SDS011;8594;52.052;8.354;2022-11-25T06:52:29;16.60;;;5.43;;
16954;SDS011;8594;52.052;8.354;2022-11-25T06:54:56;13.10;;;4.07;;
16954;SDS011;8594;52.052;8.354;2022-11-25T06:57:23;11.73;;;4.10;;
16954;SDS011;8594;52.052;8.354;2022-11-25T06:59:50;17.73;;;4.57;;
16954;SDS011;8594;52.052;8.354;2022-11-25T07:02:17;19.03;;;5.63;;
16954;SDS011;8594;52.052;8.354;2022-11-25T07:04:44;15.50;;;3.87;;
16954;SDS011;8594;52.052;8.354;2022-11-25T07:07:11;26.93;;;4.90;;
16954;SDS011;8594;52.052;8.354;2022-11-25T07:09:39;8.90;;;4.20;;
16954;SDS011;8594;52.052;8.354;2022-11-25T07:12:07;13.63;;;4.43;;
16954;SDS011;8594;52.052;8.354;2022-11-25T07:14:36;14.23;;;4.80;;
16954;SDS011;8594;52.052;8.354;2022-11-25T07:17:03;12.00;;;3.90;;
16954;SDS011;8594;52.052;8.354;2022-11-25T07:19:30;11.30;;;3.93;;
16954;SDS011;8594;52.052;8.354;2022-11-25T07:21:59;20.50;;;4.77;;
16954;SDS011;8594;52.052;8.354;2022-11-25T07:24:26;18.50;;;4.50;;
16954;SDS011;8594;52.052;8.354;2022-11-25T07:26:55;16.13;;;4.40;;
16954;SDS011;8594;52.052;8.354;2022-11-25T07:29:22;14.50;;;4.63;;
16954;SDS011;8594;52.052;8.354;2022-11-25T07:31:49;20.90;;;5.10;;
16954;SDS011;8594;52.052;8.354;2022-11-25T07:34:17;16.73;;;5.27;;
16954;SDS011;8594;52.052;8.354;2022-11-25T07:36:46;22.13;;;4.77;;
16954;SDS011;8594;52.052;8.354;2022-11-25T07:39:15;14.57;;;4.87;;
16954;SDS011;8594;52.052;8.354;2022-11-25T07:41:45;20.07;;;4.73;;
16954;SDS011;8594;52.052;8.354;2022-11-25T07:44:16;22.43;;;5.07;;
16954;SDS011;8594;52.052;8.354;2022-11-25T07:46:44;15.83;;;4.53;;
16954;SDS011;8594;52.052;8.354;2022-11-25T07:49:13;20.10;;;4.60;;
16954;SDS011;8594;52.052;8.354;2022-11-25T07:51:45;16.13;;;4.73;;
16954;SDS011;8594;52.052;8.354;2022-11-25T07:54:15;14.47;;;4.50;;
16954;SDS011;8594;52.052;8.354;2022-11-25T07:56:43;20.00;;;5.33;;
16954;SDS011;8594;52.052;8.354;2022-11-25T07:59:11;21.17;;;4.50;;
16954;SDS011;8594;52.052;8.354;2022-11-25T08:01:41;19.77;;;4.70;;
16954;SDS011;8594;52.052;8.354;2022-11-25T08:04:09;16.00;;;4.53;;
16954;SDS011;8594;52.052;8.354;2022-11-25T08:06:39;16.97;;;4.43;;
16954;SDS011;8594;52.052;8.354;2022-11-25T08:09:10;22.03;;;4.53;;
16954;SDS011;8594;52.052;8.354;2022-11-25T08:11:40;13.97;;;4.63;;
16954;SDS011;8594;52.052;8.354;2022-11-25T08:14:07;18.13;;;5.47;;
16954;SDS011;8594;52.052;8.354;2022-11-25T08:16:35;10.33;;;4.73;;
16954;SDS011;8594;52.052;8.354;2022-11-25T08:19:06;15.07;;;5.03;;
16954;SDS011;8594;52.052;8.354;2022-11-25T08:21:37;13.17;;;5.90;;
16954;SDS011;8594;52.052;8.354;2022-11-25T08:24:04;33.87;;;7.83;;
16954;SDS011;8594;52.052;8.354;2022-11-25T08:26:32;26.20;;;8.43;;
16954;SDS011;8594;52.052;8.354;2022-11-25T08:29:02;21.97;;;9.60;;
16954;SDS011;8594;52.052;8.354;2022-11-25T08:31:31;24.10;;;9.93;;
16954;SDS011;8594;52.052;8.354;2022-11-25T08:34:00;25.30;;;8.07;;
16954;SDS011;8594;52.052;8.354;2022-11-25T08:36:30;24.53;;;8.87;;
16954;SDS011;8594;52.052;8.354;2022-11-25T08:38:59;25.13;;;8.67;;
16954;SDS011;8594;52.052;8.354;2022-11-25T08:41:32;30.23;;;8.10;;
16954;SDS011;8594;52.052;8.354;2022-11-25T08:44:03;21.47;;;6.57;;
16954;SDS011;8594;52.052;8.354;2022-11-25T08:46:34;21.70;;;5.60;;
16954;SDS011;8594;52.052;8.354;2022-11-25T08:49:04;26.07;;;6.63;;
16954;SDS011;8594;52.052;8.354;2022-11-25T08:51:35;13.97;;;5.30;;
16954;SDS011;8594;52.052;8.354;2022-11-25T08:54:03;17.87;;;5.30;;
16954;SDS011;8594;52.052;8.354;2022-11-25T08:56:32;16.80;;;5.00;;
16954;SDS011;8594;52.052;8.354;2022-11-25T08:58:59;18.73;;;6.00;;
16954;SDS011;8594;52.052;8.354;2022-11-25T09:01:26;21.67;;;5.70;;
16954;SDS011;8594;52.052;8.354;2022-11-25T09:03:54;17.87;;;6.10;;
16954;SDS011;8594;52.052;8.354;2022-11-25T09:06:22;21.07;;;5.87;;
16954;SDS011;8594;52.052;8.354;2022-11-25T09:08:54;19.80;;;6.17;;
16954;SDS011;8594;52.052;8.354;2022-11-25T09:11:23;17.97;;;6.77;;
16954;SDS011;8594;52.052;8.354;2022-11-25T09:13:50;25.10;;;7.00;;
16954;SDS011;8594;52.052;8.354;2022-11-25T09:16:17;18.07;;;6.90;;
16954;SDS011;8594;52.052;8.354;2022-11-25T09:18:45;18.97;;;6.30;;
16954;SDS011;8594;52.052;8.354;2022-11-25T09:21:13;14.00;;;6.07;;
16954;SDS011;8594;52.052;8.354;2022-11-25T09:23:42;17.10;;;5.97;;
16954;SDS011;8594;52.052;8.354;2022-11-25T09:26:16;15.60;;;6.00;;
16954;SDS011;8594;52.052;8.354;2022-11-25T09:28:48;23.47;;;6.90;;
16954;SDS011;8594;52.052;8.354;2022-11-25T09:31:15;19.47;;;6.00;;
16954;SDS011;8594;52.052;8.354;2022-11-25T09:33:42;19.63;;;5.90;;
16954;SDS011;8594;52.052;8.354;2022-11-25T09:36:10;19.47;;;6.23;;
16954;SDS011;8594;52.052;8.354;2022-11-25T09:38:39;24.73;;;8.80;;
16954;SDS011;8594;52.052;8.354;2022-11-25T09:41:10;18.90;;;8.30;;
16954;SDS011;8594;52.052;8.354;2022-11-25T09:44:33;15.03;;;6.10;;
16954;SDS011;8594;52.052;8.354;2022-11-25T09:47:35;17.47;;;6.17;;
16954;SDS011;8594;52.052;8.354;2022-11-25T09:50:16;20.33;;;6.20;;
16954;SDS011;8594;52.052;8.354;2022-11-25T09:53:04;21.33;;;6.77;;
16954;SDS011;8594;52.052;8.354;2022-11-25T09:55:51;20.30;;;6.47;;
16954;SDS011;8594;52.052;8.354;2022-11-25T09:58:29;19.03;;;7.30;;
16954;SDS011;8594;52.052;8.354;2022-11-25T10:01:03;15.63;;;5.93;;
16954;SDS011;8594;52.052;8.354;2022-11-25T10:03:38;18.90;;;6.07;;
16954;SDS011;8594;52.052;8.354;2022-11-25T10:06:11;15.80;;;5.87;;
16954;SDS011;8594;52.052;8.354;2022-11-25T10:08:43;18.87;;;6.13;;
16954;SDS011;8594;52.052;8.354;2022-11-25T10:11:23;25.10;;;6.27;;
16954;SDS011;8594;52.052;8.354;2022-11-25T10:14:07;18.10;;;5.90;;
16954;SDS011;8594;52.052;8.354;2022-11-25T10:16:44;13.67;;;6.10;;
16954;SDS011;8594;52.052;8.354;2022-11-25T10:19:20;18.90;;;5.87;;
16954;SDS011;8594;52.052;8.354;2022-11-25T10:21:57;21.30;;;6.77;;
16954;SDS011;8594;52.052;8.354;2022-11-25T10:24:24;16.33;;;5.70;;
16954;SDS011;8594;52.052;8.354;2022-11-25T10:26:54;22.00;;;6.17;;
16954;SDS011;8594;52.052;8.354;2022-11-25T10:29:31;17.67;;;5.90;;
16954;SDS011;8594;52.052;8.354;2022-11-25T10:32:08;22.67;;;6.43;;
16954;SDS011;8594;52.052;8.354;2022-11-25T10:34:47;23.03;;;5.40;;
16954;SDS011;8594;52.052;8.354;2022-11-25T10:37:22;16.00;;;5.10;;
16954;SDS011;8594;52.052;8.354;2022-11-25T10:39:55;12.23;;;5.00;;
16954;SDS011;8594;52.052;8.354;2022-11-25T10:42:23;13.27;;;6.13;;
16954;SDS011;8594;52.052;8.354;2022-11-25T10:44:54;13.73;;;4.67;;
16954;SDS011;8594;52.052;8.354;2022-11-25T10:47:25;11.40;;;4.40;;
16954;SDS011;8594;52.052;8.354;2022-11-25T10:50:10;11.63;;;4.43;;
16954;SDS011;8594;52.052;8.354;2022-11-25T10:52:47;8.67;;;4.10;;
16954;SDS011;8594;52.052;8.354;2022-11-25T10:55:22;12.67;;;4.57;;
16954;SDS011;8594;52.052;8.354;2022-11-25T10:57:52;13.37;;;4.23;;
16954;SDS011;8594;52.052;8.354;2022-11-25T11:00:26;12.53;;;4.03;;
16954;SDS011;8594;52.052;8.354;2022-11-25T11:02:57;13.60;;;4.07;;
16954;SDS011;8594;52.052;8.354;2022-11-25T11:05:42;7.33;;;3.83;;
16954;SDS011;8594;52.052;8.354;2022-11-25T11:08:16;18.47;;;4.60;;
16954;SDS011;8594;52.052;8.354;2022-11-25T11:13:40;13.10;;;4.23;;
16954;SDS011;8594;52.052;8.354;2022-11-25T11:16:20;10.57;;;4.30;;
16954;SDS011;8594;52.052;8.354;2022-11-25T11:18:54;14.43;;;4.60;;
16954;SDS011;8594;52.052;8.354;2022-11-25T11:21:23;16.07;;;5.20;;
16954;SDS011;8594;52.052;8.354;2022-11-25T11:23:56;13.50;;;4.27;;
16954;SDS011;8594;52.052;8.354;2022-11-25T11:26:24;12.90;;;5.20;;
16954;SDS011;8594;52.052;8.354;2022-11-25T11:28:58;14.83;;;5.50;;
16954;SDS011;8594;52.052;8.354;2022-11-25T11:31:32;9.27;;;4.27;;
16954;SDS011;8594;52.052;8.354;2022-11-25T11:34:20;13.07;;;4.67;;
16954;SDS011;8594;52.052;8.354;2022-11-25T11:37:08;12.20;;;5.10;;
16954;SDS011;8594;52.052;8.354;2022-11-25T11:39:56;10.97;;;5.07;;
16954;SDS011;8594;52.052;8.354;2022-11-25T11:42:45;14.90;;;5.87;;
16954;SDS011;8594;52.052;8.354;2022-11-25T11:45:33;12.30;;;6.00;;
16954;SDS011;8594;52.052;8.354;2022-11-25T11:48:19;18.80;;;6.80;;
16954;SDS011;8594;52.052;8.354;2022-11-25T11:50:55;17.93;;;7.20;;
16954;SDS011;8594;52.052;8.354;2022-11-25T11:53:34;16.67;;;7.30;;
16954;SDS011;8594;52.052;8.354;2022-11-25T11:56:14;16.87;;;8.60;;
16954;SDS011;8594;52.052;8.354;2022-11-25T11:58:57;18.00;;;8.87;;
16954;SDS011;8594;52.052;8.354;2022-11-25T12:02:13;17.03;;;9.10;;
16954;SDS011;8594;52.052;8.354;2022-11-25T12:04:53;14.63;;;8.30;;
16954;SDS011;8594;52.052;8.354;2022-11-25T12:07:31;19.23;;;9.00;;
16954;SDS011;8594;52.052;8.354;2022-11-25T12:10:06;18.97;;;8.73;;
16954;SDS011;8594;52.052;8.354;2022-11-25T12:12:48;22.10;;;9.63;;
16954;SDS011;8594;52.052;8.354;2022-11-25T12:15:22;15.50;;;8.90;;
16954;SDS011;8594;52.052;8.354;2022-11-25T12:18:03;19.80;;;8.40;;
16954;SDS011;8594;52.052;8.354;2022-11-25T12:20:46;15.80;;;7.87;;
16954;SDS011;8594;52.052;8.354;2022-11-25T12:23:25;18.27;;;8.20;;
16954;SDS011;8594;52.052;8.354;2022-11-25T12:26:06;14.23;;;7.87;;
16954;SDS011;8594;52.052;8.354;2022-11-25T12:28:41;15.90;;;7.53;;
16954;SDS011;8594;52.052;8.354;2022-11-25T12:31:14;15.20;;;7.13;;
16954;SDS011;8594;52.052;8.354;2022-11-25T12:33:51;19.80;;;8.73;;
16954;SDS011;8594;52.052;8.354;2022-11-25T12:36:30;15.67;;;7.03;;
16954;SDS011;8594;52.052;8.354;2022-11-25T12:39:01;14.37;;;7.33;;
16954;SDS011;8594;52.052;8.354;2022-11-25T12:41:39;13.13;;;7.10;;
16954;SDS011;8594;52.052;8.354;2022-11-25T12:44:12;13.77;;;7.13;;
16954;SDS011;8594;52.052;8.354;2022-11-25T12:46:47;13.47;;;6.80;;
16954;SDS011;8594;52.052;8.354;2022-11-25T12:49:17;11.83;;;6.93;;
16954;SDS011;8594;52.052;8.354;2022-11-25T12:51:56;18.10;;;7.10;;
16954;SDS011;8594;52.052;8.354;2022-11-25T12:55:04;15.80;;;7.07;;
16954;SDS011;8594;52.052;8.354;2022-11-25T13:01:07;11.20;;;6.90;;
16954;SDS011;8594;52.052;8.354;2022-11-25T13:04:09;19.33;;;7.40;;
16954;SDS011;8594;52.052;8.354;2022-11-25T13:07:06;14.87;;;6.93;;
16954;SDS011;8594;52.052;8.354;2022-11-25T13:13:16;12.57;;;6.40;;
16954;SDS011;8594;52.052;8.354;2022-11-25T13:15:57;14.20;;;6.50;;
16954;SDS011;8594;52.052;8.354;2022-11-25T13:18:29;10.90;;;6.00;;
16954;SDS011;8594;52.052;8.354;2022-11-25T13:21:04;18.77;;;6.87;;
16954;SDS011;8594;52.052;8.354;2022-11-25T13:23:45;11.73;;;5.37;;
16954;SDS011;8594;52.052;8.354;2022-11-25T13:32:33;14.00;;;6.33;;
16954;SDS011;8594;52.052;8.354;2022-11-25T13:38:35;16.50;;;5.13;;
16954;SDS011;8594;52.052;8.354;2022-11-25T13:41:30;10.70;;;4.70;;
16954;SDS011;8594;52.052;8.354;2022-11-25T13:44:05;12.07;;;4.53;;
16954;SDS011;8594;52.052;8.354;2022-11-25T13:46:52;11.07;;;4.53;;
16954;SDS011;8594;52.052;8.354;2022-11-25T13:49:23;14.10;;;4.93;;
16954;SDS011;8594;52.052;8.354;2022-11-25T13:51:58;9.50;;;4.10;;
16954;SDS011;8594;52.052;8.354;2022-11-25T13:54:31;11.60;;;4.77;;
16954;SDS011;8594;52.052;8.354;2022-11-25T13:57:20;16.97;;;5.30;;
16954;SDS011;8594;52.052;8.354;2022-11-25T13:59:56;10.20;;;4.00;;
16954;SDS011;8594;52.052;8.354;2022-11-25T14:02:30;13.20;;;4.40;;
16954;SDS011;8594;52.052;8.354;2022-11-25T14:05:08;14.80;;;4.03;;
16954;SDS011;8594;52.052;8.354;2022-11-25T14:08:14;15.80;;;4.30;;
16954;SDS011;8594;52.052;8.354;2022-11-25T14:10:52;13.53;;;4.80;;
16954;SDS011;8594;52.052;8.354;2022-11-25T14:13:45;9.03;;;3.60;;
16954;SDS011;8594;52.052;8.354;2022-11-25T14:16:42;12.17;;;4.47;;
16954;SDS011;8594;52.052;8.354;2022-11-25T14:19:36;15.30;;;5.27;;
16954;SDS011;8594;52.052;8.354;2022-11-25T14:22:33;14.40;;;5.10;;
16954;SDS011;8594;52.052;8.354;2022-11-25T14:25:28;11.57;;;4.27;;
16954;SDS011;8594;52.052;8.354;2022-11-25T14:28:14;10.23;;;4.17;;
16954;SDS011;8594;52.052;8.354;2022-11-25T14:30:57;12.43;;;4.20;;
16954;SDS011;8594;52.052;8.354;2022-11-25T14:33:35;9.50;;;4.40;;
16954;SDS011;8594;52.052;8.354;2022-11-25T14:36:10;15.47;;;4.90;;
16954;SDS011;8594;52.052;8.354;2022-11-25T14:38:44;18.33;;;4.37;;
16954;SDS011;8594;52.052;8.354;2022-11-25T14:41:18;19.13;;;5.30;;
16954;SDS011;8594;52.052;8.354;2022-11-25T14:43:51;20.03;;;5.50;;
16954;SDS011;8594;52.052;8.354;2022-11-25T14:46:24;18.47;;;4.73;;
16954;SDS011;8594;52.052;8.354;2022-11-25T14:48:52;16.00;;;4.60;;
16954;SDS011;8594;52.052;8.354;2022-11-25T14:51:20;13.40;;;4.50;;
16954;SDS011;8594;52.052;8.354;2022-11-25T14:53:50;12.47;;;4.33;;
16954;SDS011;8594;52.052;8.354;2022-11-25T14:56:20;22.80;;;4.57;;
16954;SDS011;8594;52.052;8.354;2022-11-25T14:58:53;13.40;;;4.37;;
16954;SDS011;8594;52.052;8.354;2022-11-25T15:01:23;20.40;;;5.03;;
16954;SDS011;8594;52.052;8.354;2022-11-25T15:04:01;12.23;;;5.30;;
16954;SDS011;8594;52.052;8.354;2022-11-25T15:06:34;29.50;;;5.50;;
16954;SDS011;8594;52.052;8.354;2022-11-25T15:09:12;31.17;;;5.27;;
16954;SDS011;8594;52.052;8.354;2022-11-25T15:11:46;13.20;;;4.60;;
16954;SDS011;8594;52.052;8.354;2022-11-25T15:14:21;13.73;;;4.47;;
16954;SDS011;8594;52.052;8.354;2022-11-25T15:16:54;13.13;;;4.17;;
16954;SDS011;8594;52.052;8.354;2022-11-25T15:19:23;15.73;;;4.70;;
16954;SDS011;8594;52.052;8.354;2022-11-25T15:21:57;14.20;;;4.60;;
16954;SDS011;8594;52.052;8.354;2022-11-25T15:24:27;14.83;;;4.80;;
16954;SDS011;8594;52.052;8.354;2022-11-25T15:26:57;15.27;;;5.17;;
16954;SDS011;8594;52.052;8.354;2022-11-25T15:29:28;12.67;;;5.20;;
16954;SDS011;8594;52.052;8.354;2022-11-25T15:31:58;14.87;;;4.73;;
16954;SDS011;8594;52.052;8.354;2022-11-25T15:34:25;17.87;;;5.47;;
16954;SDS011;8594;52.052;8.354;2022-11-25T15:36:56;19.00;;;5.13;;
16954;SDS011;8594;52.052;8.354;2022-11-25T15:39:27;18.63;;;4.90;;